Time;durP1;ratioP1;P1;durP2;ratioP2;P2;SDS_P1;SDS_P2;PMS_P1;PMS_P2;Temp;Humidity;BMP_temperature;BMP_pressure;BME280_temperature;BME280_humidity;BME280_pressure;Samples;Min_cycle;Max_cycle;Signal;HPM_P1;HPM_P2
2023/07/11 00:01:38;;;;;;;9.57;5.68;;;;;;;;;;4954684;28;20031;-76
2023/07/11 00:04:04;;;;;;;8.07;5.88;;;;;;;;;;4973322;28;20046;-76
2023/07/11 00:06:30;;;;;;;7.35;5.70;;;;;;;;;;4975697;28;20023;-76
2023/07/11 00:08:56;;;;;;;9.07;5.55;;;;;;;;;;4973008;28;20038;-76
2023/07/11 00:11:22;;;;;;;7.75;5.82;;;;;;;;;;4982704;28;20482;-76
2023/07/11 00:13:49;;;;;;;6.45;5.22;;;;;;;;;;4975442;28;20106;-76
2023/07/11 00:16:16;;;;;;;7.28;5.00;;;;;;;;;;4975646;28;20023;-76
2023/07/11 00:18:42;;;;;;;8.65;5.20;;;;;;;;;;4973373;28;20042;-76
2023/07/11 00:21:08;;;;;;;7.47;5.20;;;;;;;;;;4975020;28;20043;-76
2023/07/11 00:23:34;;;;;;;7.50;4.93;;;;;;;;;;4968632;28;20027;-77
2023/07/11 00:26:01;;;;;;;5.03;4.53;;;;;;;;;;4975612;28;20106;-77
2023/07/11 00:28:27;;;;;;;7.28;5.25;;;;;;;;;;4974808;28;20031;-77
2023/07/11 00:30:53;;;;;;;11.95;5.63;;;;;;;;;;4975053;28;20031;-76
2023/07/11 00:33:19;;;;;;;7.60;5.68;;;;;;;;;;4957765;28;20573;-76
2023/07/11 00:35:47;;;;;;;7.72;5.80;;;;;;;;;;4975045;28;20031;-76
2023/07/11 00:38:13;;;;;;;9.07;5.25;;;;;;;;;;4979884;28;20031;-77
2023/07/11 00:40:40;;;;;;;11.30;5.85;;;;;;;;;;4975435;28;20113;-76
2023/07/11 00:43:09;;;;;;;7.65;5.75;;;;;;;;;;4975601;28;20109;-76
2023/07/11 00:45:53;;;;;;;9.82;5.70;;;;;;;;;;4975287;28;20472;-75
2023/07/11 00:48:22;;;;;;;9.05;6.10;;;;;;;;;;4974660;28;20027;-75
2023/07/11 00:50:48;;;;;;;9.15;5.57;;;;;;;;;;4973374;28;20022;-76
2023/07/11 00:53:15;;;;;;;8.25;6.00;;;;;;;;;;4965054;28;20035;-76
2023/07/11 00:55:41;;;;;;;6.13;5.53;;;;;;;;;;4953168;28;20023;-77
2023/07/11 00:58:07;;;;;;;8.48;5.82;;;;;;;;;;4974208;28;20473;-76
2023/07/11 01:00:34;;;;;;;11.50;5.90;;;;;;;;;;4974617;28;20062;-76
2023/07/11 01:03:00;;;;;;;8.02;5.97;;;;;;;;;;4975060;28;20031;-76
2023/07/11 01:05:26;;;;;;;8.40;6.40;;;;;;;;;;4975074;28;20078;-76
2023/07/11 01:07:52;;;;;;;8.50;6.40;;;;;;;;;;4967696;28;20032;-76
2023/07/11 01:10:18;;;;;;;8.60;6.35;;;;;;;;;;4964835;28;20031;-77
2023/07/11 01:12:45;;;;;;;11.85;7.03;;;;;;;;;;4982064;28;20030;-76
2023/07/11 01:15:11;;;;;;;15.70;7.28;;;;;;;;;;4973526;28;20088;-77
2023/07/11 01:17:37;;;;;;;8.05;6.07;;;;;;;;;;4970712;28;20032;-77
2023/07/11 01:20:06;;;;;;;7.93;6.18;;;;;;;;;;4970435;28;20074;-77
2023/07/11 01:22:33;;;;;;;13.43;6.47;;;;;;;;;;4970787;28;20124;-77
2023/07/11 01:25:01;;;;;;;8.80;6.35;;;;;;;;;;4963347;28;20425;-76
2023/07/11 01:27:27;;;;;;;10.02;6.03;;;;;;;;;;4973973;28;20023;-76
2023/07/11 01:29:53;;;;;;;8.85;6.07;;;;;;;;;;4974246;28;20081;-76
2023/07/11 01:32:19;;;;;;;10.23;6.20;;;;;;;;;;4973101;28;20547;-77
2023/07/11 01:34:46;;;;;;;8.57;6.35;;;;;;;;;;4976451;28;20027;-77
2023/07/11 01:37:12;;;;;;;7.22;6.05;;;;;;;;;;4973823;28;20508;-77
2023/07/11 01:39:38;;;;;;;10.23;5.93;;;;;;;;;;4945751;28;20035;-76
2023/07/11 01:42:04;;;;;;;10.75;6.47;;;;;;;;;;4974866;28;20031;-76
2023/07/11 01:44:30;;;;;;;9.27;6.25;;;;;;;;;;4956637;28;20521;-76
2023/07/11 01:46:57;;;;;;;11.35;7.30;;;;;;;;;;4973990;28;20158;-77
2023/07/11 01:49:23;;;;;;;8.82;6.80;;;;;;;;;;4960343;28;20034;-77
2023/07/11 01:51:49;;;;;;;8.32;6.47;;;;;;;;;;4971879;28;20027;-76
2023/07/11 01:54:15;;;;;;;11.80;6.40;;;;;;;;;;4977277;28;20046;-76
2023/07/11 01:56:41;;;;;;;7.93;6.50;;;;;;;;;;4956307;28;20022;-76
2023/07/11 01:59:07;;;;;;;7.40;6.55;;;;;;;;;;4972772;28;20030;-76
2023/07/11 02:01:33;;;;;;;8.45;5.75;;;;;;;;;;4973601;28;20031;-76
2023/07/11 02:03:59;;;;;;;10.23;6.70;;;;;;;;;;4959892;28;20035;-77
2023/07/11 02:06:25;;;;;;;10.13;6.70;;;;;;;;;;4973583;28;20026;-76
2023/07/11 02:08:51;;;;;;;8.68;6.25;;;;;;;;;;4972996;28;20019;-77
2023/07/11 02:11:17;;;;;;;10.07;7.18;;;;;;;;;;4972559;28;20034;-76
2023/07/11 02:13:43;;;;;;;8.10;7.30;;;;;;;;;;4979833;28;20033;-77
2023/07/11 02:16:09;;;;;;;8.38;6.72;;;;;;;;;;4973174;28;20563;-77
2023/07/11 02:18:35;;;;;;;9.68;7.22;;;;;;;;;;4972869;28;20119;-77
2023/07/11 02:21:01;;;;;;;8.57;6.65;;;;;;;;;;4973007;28;20022;-75
2023/07/11 02:23:27;;;;;;;8.15;6.90;;;;;;;;;;4983982;28;20026;-76
2023/07/11 02:25:53;;;;;;;8.00;6.90;;;;;;;;;;4973711;28;20073;-75
2023/07/11 02:28:20;;;;;;;9.50;6.85;;;;;;;;;;4972338;28;20028;-76
2023/07/11 02:30:46;;;;;;;11.27;6.13;;;;;;;;;;4974563;28;20460;-76
2023/07/11 02:33:12;;;;;;;7.03;6.15;;;;;;;;;;4974857;28;20049;-76
2023/07/11 02:35:38;;;;;;;12.65;7.53;;;;;;;;;;4976159;28;20033;-76
2023/07/11 02:38:04;;;;;;;7.45;5.63;;;;;;;;;;4972180;28;20034;-76
2023/07/11 02:40:30;;;;;;;7.55;6.45;;;;;;;;;;4972708;28;20023;-76
2023/07/11 02:42:56;;;;;;;9.52;6.50;;;;;;;;;;4972843;28;20019;-76
2023/07/11 02:45:22;;;;;;;11.38;7.30;;;;;;;;;;4972899;28;20054;-76
2023/07/11 02:47:48;;;;;;;9.35;6.43;;;;;;;;;;4954486;28;20026;-75
2023/07/11 02:50:14;;;;;;;5.95;5.35;;;;;;;;;;4955315;28;20456;-75
2023/07/11 02:52:40;;;;;;;8.60;6.53;;;;;;;;;;4970822;28;20035;-75
2023/07/11 02:55:07;;;;;;;7.57;6.40;;;;;;;;;;4979864;28;20031;-75
2023/07/11 02:57:33;;;;;;;7.70;5.85;;;;;;;;;;4971676;28;20058;-75
2023/07/11 02:59:59;;;;;;;9.27;6.30;;;;;;;;;;4972371;28;20035;-75
2023/07/11 03:02:25;;;;;;;7.60;6.22;;;;;;;;;;4972400;28;20049;-75
2023/07/11 03:04:51;;;;;;;9.88;6.22;;;;;;;;;;4960307;28;20050;-75
2023/07/11 03:07:18;;;;;;;8.30;6.15;;;;;;;;;;4971591;28;20482;-75
2023/07/11 03:09:44;;;;;;;9.77;5.82;;;;;;;;;;4972400;28;20023;-75
2023/07/11 03:12:10;;;;;;;9.50;6.78;;;;;;;;;;4972098;28;20034;-75
2023/07/11 03:14:37;;;;;;;15.20;11.65;;;;;;;;;;4980628;28;20027;-75
2023/07/11 03:17:03;;;;;;;34.28;22.92;;;;;;;;;;4952659;28;20502;-75
2023/07/11 03:19:29;;;;;;;71.68;44.00;;;;;;;;;;4967562;28;20298;-75
2023/07/11 03:21:55;;;;;;;19.55;12.07;;;;;;;;;;4972260;28;20115;-75
2023/07/11 03:24:21;;;;;;;8.65;5.82;;;;;;;;;;4975168;28;20022;-75
2023/07/11 03:26:47;;;;;;;11.10;5.82;;;;;;;;;;4985342;28;20033;-75
2023/07/11 03:29:14;;;;;;;7.68;5.63;;;;;;;;;;4971348;28;20077;-76
2023/07/11 03:31:40;;;;;;;7.55;5.13;;;;;;;;;;4954857;28;20520;-76
2023/07/11 03:34:06;;;;;;;5.82;5.22;;;;;;;;;;4972036;28;20041;-76
2023/07/11 03:36:32;;;;;;;7.78;5.10;;;;;;;;;;4972013;28;20436;-76
2023/07/11 03:38:58;;;;;;;6.95;5.28;;;;;;;;;;4953293;28;20034;-76
2023/07/11 03:41:24;;;;;;;8.35;5.20;;;;;;;;;;4977508;28;20037;-76
2023/07/11 03:43:50;;;;;;;6.70;4.90;;;;;;;;;;4971905;28;20027;-76
2023/07/11 03:46:16;;;;;;;5.35;4.55;;;;;;;;;;4971881;28;20054;-76
2023/07/11 03:48:42;;;;;;;7.35;4.93;;;;;;;;;;4962803;28;20054;-77
2023/07/11 03:51:08;;;;;;;7.03;4.55;;;;;;;;;;4967947;28;20054;-76
2023/07/11 03:53:34;;;;;;;5.20;3.95;;;;;;;;;;4971813;28;20602;-76
2023/07/11 03:56:00;;;;;;;4.53;3.70;;;;;;;;;;4972309;28;20046;-76
2023/07/11 03:58:27;;;;;;;4.47;4.07;;;;;;;;;;4971264;28;20026;-76
2023/07/11 04:00:53;;;;;;;8.30;4.75;;;;;;;;;;4971790;28;20490;-75
2023/07/11 04:03:19;;;;;;;7.32;4.43;;;;;;;;;;4969057;28;20034;-76
2023/07/11 04:05:45;;;;;;;7.10;4.22;;;;;;;;;;4962079;28;20030;-76
2023/07/11 04:08:11;;;;;;;6.75;4.22;;;;;;;;;;4971153;28;20331;-76
2023/07/11 04:10:37;;;;;;;8.23;4.70;;;;;;;;;;4954293;28;20038;-74
2023/07/11 04:13:03;;;;;;;5.97;4.85;;;;;;;;;;4972083;28;20050;-76
2023/07/11 04:15:29;;;;;;;9.02;4.97;;;;;;;;;;4971846;28;20143;-76
2023/07/11 04:17:55;;;;;;;8.13;4.40;;;;;;;;;;4969181;28;20110;-74
2023/07/11 04:20:21;;;;;;;6.50;4.35;;;;;;;;;;4935115;29;20387;-74
2023/07/11 04:22:47;;;;;;;6.43;4.28;;;;;;;;;;4954800;28;20035;-74
2023/07/11 04:25:13;;;;;;;4.95;4.18;;;;;;;;;;4982358;28;20026;-74
2023/07/11 04:27:39;;;;;;;7.47;4.15;;;;;;;;;;4979343;28;20409;-75
2023/07/11 04:30:06;;;;;;;5.55;3.67;;;;;;;;;;4971477;28;20077;-74
2023/07/11 04:32:32;;;;;;;10.98;4.43;;;;;;;;;;4971729;28;20023;-74
2023/07/11 04:34:58;;;;;;;7.68;4.45;;;;;;;;;;4971636;28;20029;-75
2023/07/11 04:37:24;;;;;;;6.20;4.03;;;;;;;;;;4970749;28;20449;-75
2023/07/11 04:39:50;;;;;;;8.57;4.45;;;;;;;;;;4954003;28;20085;-74
2023/07/11 04:42:16;;;;;;;7.28;3.90;;;;;;;;;;4977266;28;20021;-75
2023/07/11 04:44:42;;;;;;;7.22;4.03;;;;;;;;;;4971346;28;20051;-75
2023/07/11 04:47:08;;;;;;;4.60;3.42;;;;;;;;;;4970664;28;20081;-74
2023/07/11 04:49:34;;;;;;;5.07;3.60;;;;;;;;;;4971207;28;20404;-75
2023/07/11 04:52:00;;;;;;;6.32;3.97;;;;;;;;;;4984254;28;20019;-75
2023/07/11 04:54:26;;;;;;;6.10;4.15;;;;;;;;;;4978345;28;20122;-75
2023/07/11 04:56:59;;;;;;;6.53;3.90;;;;;;;;;;4988174;28;20065;-75
2023/07/11 04:59:25;;;;;;;6.32;3.80;;;;;;;;;;4979266;28;20044;-75
2023/07/11 05:01:51;;;;;;;5.93;3.30;;;;;;;;;;4974341;28;20023;-75
2023/07/11 05:04:17;;;;;;;6.03;3.70;;;;;;;;;;4974501;28;20027;-75
2023/07/11 05:06:44;;;;;;;6.07;3.55;;;;;;;;;;4974750;28;20374;-75
2023/07/11 05:09:10;;;;;;;6.88;3.83;;;;;;;;;;4973790;28;20045;-75
2023/07/11 05:11:36;;;;;;;6.03;3.50;;;;;;;;;;4974963;28;20525;-75
2023/07/11 05:14:03;;;;;;;6.35;4.07;;;;;;;;;;4979209;28;20027;-74
2023/07/11 05:16:31;;;;;;;6.60;4.28;;;;;;;;;;4974948;28;20034;-75
2023/07/11 05:18:58;;;;;;;6.72;3.92;;;;;;;;;;4973704;28;20027;-75
2023/07/11 05:21:24;;;;;;;5.30;3.67;;;;;;;;;;4974178;28;20088;-75
2023/07/11 05:23:51;;;;;;;6.18;4.45;;;;;;;;;;4973365;28;20094;-75
2023/07/11 05:26:17;;;;;;;7.47;4.28;;;;;;;;;;4973374;28;20477;-75
2023/07/11 05:28:43;;;;;;;8.18;3.88;;;;;;;;;;4973473;28;20085;-75
2023/07/11 05:31:10;;;;;;;8.75;4.78;;;;;;;;;;4974030;28;20027;-75
2023/07/11 05:33:36;;;;;;;7.20;3.67;;;;;;;;;;4973383;28;20109;-75
2023/07/11 05:36:13;;;;;;;6.28;3.92;;;;;;;;;;4972726;28;20026;-75
2023/07/11 05:38:39;;;;;;;7.88;3.85;;;;;;;;;;4976169;28;20162;-75
2023/07/11 05:41:05;;;;;;;6.93;4.20;;;;;;;;;;4981079;28;20064;-74
2023/07/11 05:43:31;;;;;;;6.63;3.75;;;;;;;;;;4976496;28;20027;-75
2023/07/11 05:45:57;;;;;;;4.50;3.30;;;;;;;;;;4969040;28;20102;-75
2023/07/11 05:48:23;;;;;;;6.72;3.88;;;;;;;;;;5005464;28;20030;-75
2023/07/11 05:50:59;;;;;;;6.43;3.22;;;;;;;;;;5004269;28;20034;-75
2023/07/11 05:53:26;;;;;;;5.40;3.05;;;;;;;;;;5000442;28;20030;-75
2023/07/11 05:55:52;;;;;;;4.55;3.45;;;;;;;;;;4982502;28;20564;-76
2023/07/11 05:58:18;;;;;;;5.10;3.30;;;;;;;;;;4973165;28;20074;-75
2023/07/11 06:00:44;;;;;;;6.05;3.58;;;;;;;;;;4973574;28;20034;-75
2023/07/11 06:03:10;;;;;;;5.70;3.72;;;;;;;;;;4973844;28;20022;-76
2023/07/11 06:05:36;;;;;;;5.00;3.13;;;;;;;;;;4974167;28;20026;-74
2023/07/11 06:08:02;;;;;;;6.05;3.13;;;;;;;;;;4973183;28;20027;-75
2023/07/11 06:10:29;;;;;;;5.47;3.75;;;;;;;;;;4973624;28;20038;-75
2023/07/11 06:12:55;;;;;;;6.78;3.97;;;;;;;;;;4973467;28;20034;-76
2023/07/11 06:15:21;;;;;;;5.40;2.60;;;;;;;;;;4973312;28;20536;-75
2023/07/11 06:17:47;;;;;;;3.90;3.00;;;34.40;33.20;;;;;;4972210;28;20037;-75
2023/07/11 06:20:13;;;;;;;6.00;3.28;;;32.90;36.00;;;;;;4971688;28;20032;-74
2023/07/11 06:22:38;;;;;;;4.00;3.03;;;33.20;35.50;;;;;;4972199;28;20031;-74
2023/07/11 06:25:04;;;;;;;4.43;3.10;;;34.60;34.10;;;;;;4972391;28;20022;-75
2023/07/11 06:27:31;;;;;;;5.03;2.85;;;35.70;32.10;;;;;;4972075;28;20027;-75
2023/07/11 06:29:57;;;;;;;3.55;3.25;;;37.00;30.60;;;;;;4972422;28;20038;-75
2023/07/11 06:32:23;;;;;;;4.75;3.20;;;36.70;30.70;;;;;;4971718;28;20448;-74
2023/07/11 06:34:48;;;;;;;5.47;3.22;;;36.80;30.30;;;;;;4971962;28;20027;-75
2023/07/11 06:37:14;;;;;;;4.38;3.20;;;36.90;30.40;;;;;;4972326;28;20034;-75
2023/07/11 06:39:39;;;;;;;4.90;2.72;;;34.50;33.50;;;;;;4972885;28;20031;-75
2023/07/11 06:42:06;;;;;;;5.78;3.03;;;34.40;34.40;;;;;;4973129;28;20211;-75
2023/07/11 06:44:31;;;;;;;5.35;3.45;;;34.80;33.00;;;;;;4972835;28;20042;-75
2023/07/11 06:46:57;;;;;;;4.95;2.80;;;34.70;33.30;;;;;;4973108;28;20080;-75
2023/07/11 06:49:23;;;;;;;4.50;2.50;;;35.40;32.40;;;;;;4972279;28;20164;-75
2023/07/11 06:51:49;;;;;;;6.55;2.60;;;35.80;30.90;;;;;;4972848;28;20062;-75
2023/07/11 06:54:16;;;;;;;4.03;2.88;;;35.20;31.90;;;;;;4972872;28;20508;-75
2023/07/11 06:56:42;;;;;;;5.72;3.03;;;35.90;31.70;;;;;;4955397;28;20057;-75
2023/07/11 06:59:08;;;;;;;6.13;2.60;;;36.60;29.60;;;;;;4971445;28;20489;-75
2023/07/11 07:01:34;;;;;;;4.82;2.45;;;34.70;32.80;;;;;;4972556;28;20501;-75
2023/07/11 07:04:00;;;;;;;7.55;3.13;;;34.70;32.20;;;;;;4972711;28;20033;-75
2023/07/11 07:06:26;;;;;;;3.95;2.78;;;36.10;31.60;;;;;;4972820;28;20528;-75
2023/07/11 07:08:52;;;;;;;4.78;2.42;;;36.40;30.00;;;;;;4971772;28;20035;-75
2023/07/11 07:11:18;;;;;;;5.22;2.60;;;37.40;28.30;;;;;;4972415;28;20031;-75
2023/07/11 07:13:44;;;;;;;4.72;2.60;;;;;;;;;;4971857;28;20472;-75
2023/07/11 07:16:10;;;;;;;4.90;2.50;;;;;;;;;;4972694;28;20042;-76
2023/07/11 07:18:39;;;;;;;8.27;2.92;;;;;;;;;;4971798;28;20031;-75
2023/07/11 07:21:05;;;;;;;5.50;3.22;;;;;;;;;;4972163;28;20049;-76
2023/07/11 07:23:35;;;;;;;9.30;2.90;;;;;;;;;;4972487;28;20481;-76
2023/07/11 07:26:02;;;;;;;3.22;2.20;;;;;;;;;;4954603;28;20390;-75
2023/07/11 07:28:29;;;;;;;6.68;2.40;;;;;;;;;;4971918;28;20054;-73
2023/07/11 07:30:56;;;;;;;4.78;2.22;;;;;;;;;;4972354;28;20034;-73
2023/07/11 07:33:26;;;;;;;4.47;2.47;;;;;;;;;;4972483;28;20022;-73
2023/07/11 07:35:58;;;;;;;3.08;2.28;;;;;;;;;;4972312;28;20105;-73
2023/07/11 07:38:27;;;;;;;4.07;2.10;;;;;;;;;;4971678;28;20102;-73
2023/07/11 07:40:53;;;;;;;2.65;2.10;;;;;;;;;;4972064;28;20118;-73
2023/07/11 07:43:20;;;;;;;3.30;1.98;;;;;;;;;;4972147;28;20035;-73
2023/07/11 07:45:49;;;;;;;6.95;2.97;;;;;;;;;;4971714;28;20037;-73
2023/07/11 07:48:15;;;;;;;4.03;2.20;;;;;;;;;;4969786;28;20026;-73
2023/07/11 07:50:41;;;;;;;4.32;1.75;;;;;;;;;;4970128;28;20050;-73
2023/07/11 07:53:07;;;;;;;3.72;2.00;;;;;;;;;;4970352;28;20037;-73
2023/07/11 07:55:37;;;;;;;2.92;1.92;;;;;;;;;;4970440;28;20031;-73
2023/07/11 07:58:03;;;;;;;5.57;2.00;;;;;;;;;;4969646;28;20531;-73
2023/07/11 08:00:29;;;;;;;3.42;1.80;;;;;;;;;;4969899;28;20039;-73
2023/07/11 08:02:55;;;;;;;5.72;1.85;;;;;;;;;;4971700;28;20042;-73
2023/07/11 08:05:22;;;;;;;4.38;1.88;;;;;;;;;;4972149;28;20019;-73
2023/07/11 08:07:48;;;;;;;2.10;1.60;;;;;;;;;;4971046;28;20027;-73
2023/07/11 08:10:15;;;;;;;4.65;2.15;;;;;;;;;;4968598;28;20486;-73
2023/07/11 08:12:41;;;;;;;4.50;1.98;;;39.60;22.90;;;;;;4969883;28;20026;-73
2023/07/11 08:15:08;;;;;;;4.10;2.00;;;38.90;24.50;;;;;;4970543;28;20034;-73
2023/07/11 08:17:34;;;;;;;3.63;2.15;;;36.20;26.20;;;;;;4959446;28;20486;-73
2023/07/11 08:19:59;;;;;;;6.93;2.35;;;34.70;28.40;;;;;;4951211;28;20031;-73
2023/07/11 08:22:25;;;;;;;5.47;2.38;;;32.80;31.30;;;;;;4950347;28;20034;-73
2023/07/11 08:24:50;;;;;;;4.07;1.83;;;33.50;31.00;;;;;;4952157;28;20027;-73
2023/07/11 08:27:16;;;;;;;8.55;2.47;;;34.20;29.60;;;;;;4953745;28;20102;-73
2023/07/11 08:29:45;;;;;;;3.13;2.05;;;34.60;29.10;;;;;;4954513;28;20023;-72
2023/07/11 08:32:15;;;;;;;2.08;1.52;;;34.70;28.90;;;;;;4955846;28;20047;-72
2023/07/11 08:34:41;;;;;;;2.58;2.05;;;36.20;28.80;;;;;;4955175;28;20035;-72
2023/07/11 08:37:10;;;;;;;4.35;1.95;;;36.20;26.90;;;;;;4955487;28;20031;-73
2023/07/11 08:39:37;;;;;;;3.50;1.70;;;36.10;27.00;;;;;;4956155;28;20024;-72
2023/07/11 08:42:14;;;;;;;5.55;2.50;;;35.20;28.20;;;;;;4955919;28;20569;-72
2023/07/11 08:44:59;;;;;;;3.67;2.30;;;34.40;29.10;;;;;;4955941;29;20030;-73
2023/07/11 08:47:33;;;;;;;3.30;2.17;;;34.20;29.70;;;;;;4955079;28;20569;-73
2023/07/11 08:50:17;;;;;;;4.90;2.08;;;33.90;29.70;;;;;;4955821;29;20035;-73
2023/07/11 08:52:47;;;;;;;6.50;2.38;;;34.40;29.50;;;;;;4938312;29;20034;-73
2023/07/11 08:55:29;;;;;;;4.15;1.67;;;33.30;31.00;;;;;;4955910;29;20027;-73
2023/07/11 08:58:14;;;;;;;4.65;2.05;;;34.00;30.40;;;;;;4954879;28;20035;-73
2023/07/11 09:00:42;;;;;;;7.35;2.50;;;;;;;;;;4955591;28;20038;-73
2023/07/11 09:03:13;;;;;;;4.57;2.30;;;;;;;;;;4955432;28;20034;-73
2023/07/11 09:05:51;;;;;;;3.85;2.47;;;;;;;;;;4955655;28;20074;-72
2023/07/11 09:08:19;;;;;;;5.50;2.28;;;;;;;;;;4954557;28;20039;-72
2023/07/11 09:10:45;;;;;;;7.68;2.85;;;;;;;;;;4955185;28;20051;-72
2023/07/11 09:13:14;;;;;;;3.20;1.73;;;;;;;;;;4938074;29;20168;-73
2023/07/11 09:15:58;;;;;;;2.85;2.05;;;;;;;;;;4955218;28;20054;-73
2023/07/11 09:18:27;;;;;;;2.95;2.00;;;34.20;31.20;;;;;;4954484;28;20442;-73
2023/07/11 09:21:08;;;;;;;3.55;2.30;;;35.70;28.50;;;;;;4955147;28;20031;-73
2023/07/11 09:24:01;;;;;;;3.67;2.15;;;34.40;29.10;;;;;;4955275;29;20502;-73
2023/07/11 09:26:44;;;;;;;5.78;2.20;;;34.30;29.70;;;;;;4955060;28;20166;-73
2023/07/11 09:29:10;;;;;;;6.68;2.33;;;34.50;28.80;;;;;;4954340;28;20075;-72
2023/07/11 09:31:58;;;;;;;6.90;2.55;;;34.50;29.60;;;;;;4955127;28;20497;-73
2023/07/11 09:34:36;;;;;;;5.05;2.13;;;34.00;30.00;;;;;;4955057;29;20037;-73
2023/07/11 09:37:30;;;;;;;4.47;2.30;;;34.70;29.20;;;;;;4954140;28;20027;-73
2023/07/11 09:40:14;;;;;;;4.45;3.28;;;35.10;28.70;;;;;;4954896;29;20031;-73
2023/07/11 09:42:45;;;;;;;5.18;2.63;;;36.50;28.20;;;;;;4954757;29;20035;-73
2023/07/11 09:45:12;;;;;;;4.28;2.33;;;;;;;;;;4954406;28;20030;-73
2023/07/11 09:47:39;;;;;;;4.22;2.10;;;;;;;;;;4954027;28;20051;-73
2023/07/11 09:50:27;;;;;;;3.90;2.10;;;34.40;28.40;;;;;;4954237;28;20038;-73
2023/07/11 09:52:57;;;;;;;3.90;2.10;;;34.70;29.20;;;;;;4937974;29;20019;-73
2023/07/11 09:55:25;;;;;;;8.32;2.47;;;33.70;29.40;;;;;;4954097;29;20094;-72
2023/07/11 09:57:51;;;;;;;3.33;2.30;;;32.80;30.70;;;;;;4953635;29;20076;-73
2023/07/11 10:00:18;;;;;;;4.43;2.20;;;32.50;31.00;;;;;;4953968;28;20030;-73
2023/07/11 10:02:47;;;;;;;7.90;2.85;;;32.10;31.70;;;;;;4954726;29;20072;-73
2023/07/11 10:05:17;;;;;;;5.18;2.85;;;32.90;30.50;;;;;;4954291;29;20032;-73
2023/07/11 10:07:42;;;;;;;4.10;2.20;;;32.40;32.00;;;;;;4953647;29;20027;-73
2023/07/11 10:10:16;;;;;;;5.45;2.47;;;32.50;31.50;;;;;;4936725;29;20023;-72
2023/07/11 10:12:43;;;;;;;6.75;2.47;;;32.30;31.50;;;;;;4954015;28;20039;-73
2023/07/11 10:15:16;;;;;;;5.28;2.00;;;;;;;;;;4954092;28;20458;-74
2023/07/11 10:17:43;;;;;;;4.47;2.60;;;;;;;;;;4953613;29;20034;-74
2023/07/11 10:20:15;;;;;;;4.13;2.40;;;;;;;;;;4936788;29;20027;-73
2023/07/11 10:22:42;;;;;;;5.57;2.45;;;;;;;;;;4954022;28;20114;-73
2023/07/11 10:25:11;;;;;;;3.63;2.13;;;;;;;;;;4953868;28;20453;-73
2023/07/11 10:27:38;;;;;;;3.58;2.40;;;;;;;;;;4953347;29;20059;-73
2023/07/11 10:30:05;;;;;;;6.15;2.53;;;;;;;;;;4953675;28;20027;-76
2023/07/11 10:32:39;;;;;;;3.00;2.20;;;;;;;;;;4972281;28;20027;-73
2023/07/11 10:35:09;;;;;;;4.32;2.20;;;;;;;;;;4972124;28;20528;-74
2023/07/11 10:37:41;;;;;;;5.82;2.50;;;;;;;;;;4974344;28;20054;-73
2023/07/11 10:40:17;;;;;;;3.95;2.25;;;;;;;;;;4972715;28;20023;-73
2023/07/11 10:42:50;;;;;;;5.38;2.42;;;;;;;;;;4973226;28;20106;-73
2023/07/11 10:45:23;;;;;;;4.47;2.50;;;;;;;;;;4964013;28;20429;-73
2023/07/11 10:48:09;;;;;;;7.03;2.65;;;;;;;;;;4952143;28;20019;-72
2023/07/11 10:50:37;;;;;;;3.75;2.38;;;;;;;;;;4940342;29;20042;-72
2023/07/11 10:53:11;;;;;;;2.97;2.08;;;;;;;;;;4953119;28;20032;-73
2023/07/11 10:55:44;;;;;;;3.45;2.50;;;;;;;;;;4953941;28;20207;-72
2023/07/11 10:58:10;;;;;;;5.45;2.78;;;;;;;;;;4953056;28;20038;-73
2023/07/11 11:00:48;;;;;;;5.38;2.45;;;;;;;;;;4952926;28;20027;-73
2023/07/11 11:03:35;;;;;;;3.53;2.47;;;;;;;;;;4953274;28;20036;-73
2023/07/11 11:06:24;;;;;;;5.95;2.50;;;;;;;;;;4953363;28;20505;-73
2023/07/11 11:08:56;;;;;;;4.95;2.35;;;;;;;;;;4952686;28;20434;-72
2023/07/11 11:11:22;;;;;;;6.15;2.60;;;;;;;;;;4952992;28;20186;-72
2023/07/11 11:13:48;;;;;;;5.80;2.88;;;;;;;;;;4953284;28;20534;-72
2023/07/11 11:16:27;;;;;;;6.53;2.47;;;;;;;;;;4952950;28;20030;-72
2023/07/11 11:18:54;;;;;;;5.25;2.60;;;;;;;;;;4952630;28;20371;-72
2023/07/11 11:21:35;;;;;;;3.25;2.63;;;;;;;;;;4952767;28;20027;-72
2023/07/11 11:24:04;;;;;;;4.18;2.70;;;;;;;;;;4953044;28;20116;-73
2023/07/11 11:26:46;;;;;;;4.90;2.67;;;;;;;;;;4952992;28;20124;-73
2023/07/11 11:29:15;;;;;;;6.93;2.63;;;;;;;;;;4952334;28;20106;-73
2023/07/11 11:31:56;;;;;;;4.40;2.60;;;;;;;;;;4952784;28;20081;-73
2023/07/11 11:34:28;;;;;;;9.20;2.78;;;;;;;;;;4953379;28;20528;-73
2023/07/11 11:37:03;;;;;;;5.45;3.13;;;;;;;;;;4952694;28;20105;-72
2023/07/11 11:39:45;;;;;;;6.53;2.90;;;;;;;;;;4952681;28;20027;-73
2023/07/11 11:42:16;;;;;;;6.00;3.20;;;;;;;;;;4952615;28;20027;-73
2023/07/11 11:44:56;;;;;;;7.32;3.05;;;;;;;;;;4953196;28;20027;-73
2023/07/11 11:47:23;;;;;;;4.88;3.17;;;;;;;;;;4952013;28;20035;-74
2023/07/11 11:49:50;;;;;;;7.43;3.03;;;;;;;;;;4952916;28;20050;-72
2023/07/11 11:52:16;;;;;;;6.63;3.40;;;;;;;;;;4952587;28;20031;-73
2023/07/11 11:54:44;;;;;;;4.15;2.80;;;;;;;;;;4951162;28;20047;-72
2023/07/11 11:57:14;;;;;;;8.85;4.28;;;;;;;;;;4952328;28;20077;-72
2023/07/11 11:59:40;;;;;;;3.73;2.67;;;;;;;;;;4954856;28;20066;-72
2023/07/11 12:02:16;;;;;;;6.38;3.30;;;;;;;;;;4956466;28;20047;-72
2023/07/11 12:04:54;;;;;;;6.38;3.17;;;;;;;;;;4956547;28;20386;-72
2023/07/11 12:07:25;;;;;;;3.85;3.30;;;;;;;;;;4964037;28;20437;-72
2023/07/11 12:09:53;;;;;;;4.68;3.53;;;;;;;;;;4975742;28;20063;-71
2023/07/11 12:12:21;;;;;;;6.57;3.83;;;;;;;;;;4975031;28;20023;-73
2023/07/11 12:14:53;;;;;;;6.55;3.72;;;;;;;;;;4974038;28;20041;-73
2023/07/11 12:17:31;;;;;;;7.13;3.22;;;;;;;;;;4975106;28;20487;-73
2023/07/11 12:20:01;;;;;;;5.22;3.83;;;;;;;;;;4976063;28;20023;-74
2023/07/11 12:22:30;;;;;;;5.32;3.90;;;;;;;;;;4974883;28;20481;-75
2023/07/11 12:25:02;;;;;;;4.45;3.40;;;;;;;;;;4975497;28;20023;-75
2023/07/11 12:27:28;;;;;;;5.95;3.75;;;;;;;;;;4975235;28;20493;-75
2023/07/11 12:29:54;;;;;;;8.35;3.65;;;;;;;;;;4975520;28;20046;-75
2023/07/11 12:32:29;;;;;;;6.55;3.38;;;;;;;;;;4957804;28;20469;-75
2023/07/11 12:34:56;;;;;;;6.97;4.35;;;;;;;;;;4975748;28;20046;-75
2023/07/11 12:37:25;;;;;;;6.32;4.30;;;;;;;;;;4975697;28;20396;-75
2023/07/11 12:40:13;;;;;;;5.80;4.28;;;;;;;;;;4976442;28;20050;-75
2023/07/11 12:42:39;;;;;;;5.88;4.10;;;;;;;;;;4976213;28;20045;-75
2023/07/11 12:45:14;;;;;;;5.43;4.13;;;;;;;;;;4975762;28;20027;-75
2023/07/11 12:47:41;;;;;;;7.47;4.95;;;;;;;;;;4975161;28;20027;-75
2023/07/11 12:50:18;;;;;;;5.07;4.57;;;;;;;;;;4975648;28;20449;-75
2023/07/11 12:52:44;;;;;;;7.90;5.25;;;;;;;;;;4975522;28;20042;-75
2023/07/11 12:55:11;;;;;;;7.10;5.63;;;;;;;;;;4975785;28;20581;-75
2023/07/11 12:57:44;;;;;;;8.38;4.90;;;;;;;;;;4975159;28;20026;-75
2023/07/11 13:00:20;;;;;;;5.85;4.65;;;;;;;;;;4974953;28;20548;-75
2023/07/11 13:02:47;;;;;;;8.20;5.35;;;;;;;;;;4975360;28;20030;-75
2023/07/11 13:05:13;;;;;;;8.90;5.70;;;;;;;;;;4975197;28;20019;-75
2023/07/11 13:07:41;;;;;;;9.27;5.85;;;;;;;;;;4974677;28;20102;-75
2023/07/11 13:10:21;;;;;;;9.82;6.57;;;;;;;;;;4974465;28;20422;-75
2023/07/11 13:12:47;;;;;;;12.70;7.35;;;;;;;;;;4974865;28;20019;-75
2023/07/11 13:15:18;;;;;;;12.48;7.63;;;;;;;;;;4975208;28;20050;-75
2023/07/11 13:17:44;;;;;;;;;;;;;;;;;;4974537;28;20015;-75
2023/07/11 13:20:25;;;;;;;12.80;7.82;;;;;;;;;;4974449;28;19929;-75
2023/07/11 13:22:52;;;;;;;10.15;8.40;;;;;;;;;;4974930;28;20026;-75
2023/07/11 13:25:22;;;;;;;9.13;7.22;;;;;;;;;;4974842;28;20054;-76
2023/07/11 13:27:48;;;;;;;10.40;7.32;;;;;;;;;;4955261;28;20397;-75
2023/07/11 13:30:20;;;;;;;9.07;7.60;;;;;;;;;;4972548;28;20033;-75
2023/07/11 13:32:52;;;;;;;10.95;7.93;;;;;;;;;;4972787;28;20102;-75
2023/07/11 13:35:19;;;;;;;12.13;8.32;;;;;;;;;;4973060;28;20055;-76
2023/07/11 13:37:51;;;;;;;9.65;7.38;;;;;;;;;;4972268;28;20058;-76
2023/07/11 13:40:36;;;;;;;8.15;7.30;;;;;;;;;;4972288;28;20023;-75
2023/07/11 13:43:03;;;;;;;10.18;6.82;;;;;;;;;;4973673;28;20031;-76
2023/07/11 13:45:40;;;;;;;12.52;7.32;;;;;;;;;;4974604;28;20042;-75
2023/07/11 13:48:11;;;;;;;9.20;7.40;;;;;;;;;;4956603;28;20022;-75
2023/07/11 13:50:37;;;;;;;10.88;7.18;;;;;;;;;;4974391;28;20023;-76
2023/07/11 13:53:04;;;;;;;11.73;8.38;;;;;;;;;;4956726;28;20031;-75
2023/07/11 13:55:33;;;;;;;8.30;6.60;;;;;;;;;;4956478;28;20126;-75
2023/07/11 13:58:00;;;;;;;7.57;6.75;;;;;;;;;;4973878;28;20519;-76
2023/07/11 14:00:26;;;;;;;8.77;6.80;;;;;;;;;;4973871;28;20043;-76
2023/07/11 14:02:52;;;;;;;9.73;7.38;;;;;;;;;;4956848;28;20026;-76
2023/07/11 14:05:22;;;;;;;9.10;7.30;;;;;;;;;;4956447;28;20023;-75
2023/07/11 14:07:49;;;;;;;7.93;7.13;;;;;;;;;;4956234;28;20397;-76
2023/07/11 14:10:16;;;;;;;11.50;8.13;;;;;;;;;;4973861;28;20033;-74
2023/07/11 14:12:43;;;;;;;9.10;7.75;;;;;;;;;;4974036;28;20023;-75
2023/07/11 14:15:19;;;;;;;8.73;7.78;;;;;;;;;;4956298;28;20022;-74
2023/07/11 14:17:46;;;;;;;11.55;7.55;;;;;;;;;;4973399;28;20125;-75
2023/07/11 14:20:15;;;;;;;10.05;7.88;;;;;;;;;;4973047;28;20110;-74
2023/07/11 14:22:42;;;;;;;11.73;7.90;;;;;;;;;;4973533;28;20593;-74
2023/07/11 14:25:14;;;;;;;8.95;7.80;;;;;;;;;;4974100;28;20077;-74
2023/07/11 14:27:41;;;;;;;10.00;7.07;;;;;;;;;;4949591;28;20090;-74